Rockingham, NC (28379)

1:20 PM EST on February 27, 2017 (GMT -0500)
highland acres | | Change Station

Elev 285 ft 34.92 °N, 79.74 °W | Updated 23 seconds ago

Partly Cloudy
Partly Cloudy
68.6 °F
Feels Like 68.6 °F
N
2.0
Wind Variable Wind from ESE

Today
High -- | Low -- °F
--% Chance of Precip.
Yesterday
High -- | Low -- °F
Precip. -- in
Pressure 30.38 in
Visibility 10.0 miles
Clouds Clear
Dew Point 25 °F
Humidity 20%
Rainfall 0.00 in
Snow Depth Not available.
6:50 AM 6:13 PM
New Moon, 2% visible
METAR KRCZ 271810Z AUTO 12004KT 10SM CLR 17/M06 A3038 RMK AO2 T01731056
Pressure 30.38 in
Visibility 10.0 miles
Clouds Clear
Dew Point 25 °F
Humidity 20%
Rainfall 0.00 in
Snow Depth Not available.
6:50 AM 6:13 PM
New Moon, 2% visible
METAR KRCZ 271810Z AUTO 12004KT 10SM CLR 17/M06 A3038 RMK AO2 T01731056

Get Your Daily Forecast Email!

Thanks for signing up!

Be on the lookout for a verification email in your inbox.

You'll start receiving the daily forecast at 8 AM.

×

10-Day Weather Forecast

Almanac

Astronomy

Feb. 27, 2017 Rise Set
Actual Time
Civil Twilight
Nautical Twilight
Astronomical Twilight
Moon
Length of Visible Light
Length of Day
Tomorrow will be .
, % of the Moon is Illuminated

Today's Extremes

State Highs State Lows

Community

WunderPhotos

Upload Photos

1,962,540 photos uploaded!

WunderBlog® & News

Nearby

Air Quality

  Air Quality AQ Index Pollutant
Not available.

Snow Depth

Station Depth Elevation

Earthquake Activity

City Distance Mag. Time & Date
Minimum magnitude displayed is 2.5.

Coastal Water Temperatures

Place Temperature

Stations

Nearby Weather Stations

Station Location Temp. Windchill Dew Point Humidity Wind Precip. Elev Updated Type
                   

Watches & Warnings

There are currently no watches in effect.